createdAt,value
2022-09-05T00:00:31.469Z,2.87
2022-09-05T00:03:14.183Z,2.67
2022-09-05T00:06:02.209Z,2.80
2022-09-05T00:08:46.672Z,3.23
2022-09-05T00:11:42.487Z,2.80
2022-09-05T00:15:17.611Z,3.20
2022-09-05T00:21:31.545Z,2.80
2022-09-05T00:24:20.228Z,2.70
2022-09-05T00:24:26.449Z,2.80
2022-09-05T00:27:28.265Z,2.87
2022-09-05T00:31:07.590Z,2.73
2022-09-05T00:33:32.095Z,3.10
2022-09-05T00:36:10.009Z,2.90
2022-09-05T00:38:41.779Z,2.63
2022-09-05T00:41:13.079Z,2.83
2022-09-05T00:43:44.141Z,3.10
2022-09-05T00:46:40.623Z,2.90
2022-09-05T00:49:20.231Z,2.90
2022-09-05T00:51:59.756Z,2.77
2022-09-05T00:54:47.658Z,2.63
2022-09-05T00:57:35.786Z,3.00
2022-09-05T01:00:35.895Z,3.00
2022-09-05T01:03:25.445Z,2.80
2022-09-05T01:06:28.654Z,2.70
2022-09-05T01:09:11.027Z,3.17
2022-09-05T01:11:50.100Z,2.97
2022-09-05T01:14:32.969Z,2.93
2022-09-05T01:17:31.994Z,3.10
2022-09-05T01:20:19.386Z,2.87
2022-09-05T01:23:11.800Z,3.13
2022-09-05T01:25:55.175Z,2.93
2022-09-05T01:29:16.716Z,3.07
2022-09-05T01:32:03.597Z,2.90
2022-09-05T01:34:31.922Z,3.00
2022-09-05T01:37:24.905Z,3.53
2022-09-05T01:40:15.353Z,2.80
2022-09-05T01:43:31.522Z,3.20
2022-09-05T01:46:17.724Z,3.40
2022-09-05T01:49:00.032Z,2.90
2022-09-05T01:51:56.990Z,3.20
2022-09-05T01:54:37.684Z,3.13
2022-09-05T01:57:16.061Z,2.80
2022-09-05T01:59:55.686Z,3.17
2022-09-05T02:02:50.400Z,3.10
2022-09-05T02:05:57.325Z,3.23
2022-09-05T02:08:54.159Z,3.10
2022-09-05T02:11:52.403Z,3.00
2022-09-05T02:14:38.326Z,3.23
2022-09-05T02:17:49.968Z,2.93
2022-09-05T02:20:31.533Z,2.90
2022-09-05T02:23:40.315Z,3.03
2022-09-05T02:26:26.036Z,3.10
2022-09-05T02:29:01.476Z,3.10
2022-09-05T02:31:48.400Z,3.10
2022-09-05T02:34:32.174Z,3.20
2022-09-05T02:37:11.637Z,3.13
2022-09-05T02:45:03.003Z,3.77
2022-09-05T02:45:14.498Z,3.57
2022-09-05T02:46:13.888Z,3.40
2022-09-05T02:48:50.027Z,3.43
2022-09-05T02:57:30.047Z,3.17
2022-09-05T02:57:33.494Z,3.00
2022-09-05T02:58:06.553Z,3.20
2022-09-05T03:00:22.100Z,3.30
2022-09-05T03:03:29.268Z,3.40
2022-09-05T03:06:09.672Z,3.37
2022-09-05T03:08:56.063Z,3.43
2022-09-05T03:12:28.393Z,3.53
2022-09-05T03:15:32.909Z,3.60
2022-09-05T03:18:28.012Z,3.60
2022-09-05T03:21:09.664Z,3.47
2022-09-05T03:23:50.200Z,3.70
2022-09-05T03:26:29.357Z,3.60
2022-09-05T03:29:15.388Z,3.30
2022-09-05T03:32:01.960Z,3.70
2022-09-05T03:34:35.370Z,4.33
2022-09-05T03:37:38.989Z,4.00
2022-09-05T03:40:28.083Z,3.67
2022-09-05T03:43:03.783Z,4.20
2022-09-05T03:45:37.842Z,4.20
2022-09-05T03:48:28.386Z,4.70
2022-09-05T03:57:04.558Z,4.30
2022-09-05T03:57:17.335Z,4.30
2022-09-05T03:57:42.191Z,4.27
2022-09-05T04:00:35.175Z,4.40
2022-09-05T04:08:08.729Z,3.77
2022-09-05T04:08:15.213Z,3.80
2022-09-05T04:09:50.617Z,3.80
2022-09-05T04:12:23.211Z,4.13
2022-09-05T04:15:07.471Z,4.07
2022-09-05T04:17:46.974Z,3.97
2022-09-05T04:20:25.746Z,4.07
2022-09-05T04:23:25.107Z,3.80
2022-09-05T04:26:20.376Z,4.20
2022-09-05T04:29:17.835Z,4.20
2022-09-05T04:32:28.526Z,3.90
2022-09-05T04:35:17.205Z,4.33
2022-09-05T04:38:06.105Z,4.07
2022-09-05T04:40:50.321Z,4.43
2022-09-05T04:43:27.844Z,4.50
2022-09-05T04:46:30.078Z,4.53
2022-09-05T04:49:05.273Z,4.40
2022-09-05T04:52:01.627Z,4.60
2022-09-05T04:54:48.777Z,4.70
2022-09-05T04:57:34.981Z,3.93
2022-09-05T05:06:05.029Z,4.23
2022-09-05T05:06:14.815Z,4.80
2022-09-05T05:08:47.721Z,4.10
2022-09-05T05:15:25.999Z,3.63
2022-09-05T05:18:14.367Z,4.20
2022-09-05T05:18:16.111Z,3.77
2022-09-05T05:20:42.319Z,3.70
2022-09-05T05:23:17.117Z,3.80
2022-09-05T05:25:51.574Z,3.90
2022-09-05T05:28:24.364Z,3.93
2022-09-05T05:31:01.697Z,3.30
2022-09-05T05:33:35.096Z,3.93
2022-09-05T05:36:06.314Z,3.80
2022-09-05T05:38:46.599Z,4.00
2022-09-05T05:41:36.465Z,3.83
2022-09-05T05:44:16.090Z,6.53
2022-09-05T05:46:56.598Z,4.33
2022-09-05T05:49:57.558Z,4.10
2022-09-05T05:52:52.828Z,4.10
2022-09-05T05:55:52.148Z,4.40
2022-09-05T05:58:38.759Z,4.30
2022-09-05T06:01:37.884Z,4.50
2022-09-05T06:04:29.234Z,4.73
2022-09-05T06:07:10.050Z,4.30
2022-09-05T06:14:51.957Z,4.17
2022-09-05T06:14:55.516Z,4.37
2022-09-05T06:16:10.705Z,3.65
2022-09-05T06:19:03.822Z,4.20
2022-09-05T06:22:11.512Z,3.77
2022-09-05T06:25:17.693Z,3.33
2022-09-05T06:28:19.309Z,3.10
2022-09-05T06:31:34.738Z,3.73
2022-09-05T06:34:39.040Z,4.30
2022-09-05T06:38:00.060Z,5.03
2022-09-05T06:40:53.920Z,4.77
2022-09-05T06:44:03.282Z,4.97
2022-09-05T06:46:54.331Z,4.20
2022-09-05T06:49:38.739Z,4.80
2022-09-05T06:52:30.386Z,4.77
2022-09-05T06:55:16.933Z,4.93
2022-09-05T06:58:03.614Z,4.50
2022-09-05T07:00:41.974Z,5.37
2022-09-05T07:03:33.667Z,4.90
2022-09-05T07:06:52.330Z,4.53
2022-09-05T07:09:45.996Z,4.50
2022-09-05T07:12:21.985Z,4.35
2022-09-05T07:15:09.453Z,4.18
2022-09-05T07:18:16.292Z,4.57
2022-09-05T07:21:16.653Z,3.95
2022-09-05T07:24:09.921Z,4.00
2022-09-05T07:26:54.786Z,4.32
2022-09-05T07:29:34.568Z,4.63
2022-09-05T07:32:06.359Z,4.30
2022-09-05T07:34:37.299Z,3.75
2022-09-05T07:37:15.071Z,4.95
2022-09-05T07:40:06.702Z,3.97
2022-09-05T07:43:10.158Z,4.70
2022-09-05T07:45:55.761Z,3.80
2022-09-05T07:48:34.866Z,3.90
2022-09-05T07:56:46.796Z,3.50
2022-09-05T07:56:59.651Z,3.50
2022-09-05T07:59:56.069Z,3.30
2022-09-05T08:02:23.913Z,3.17
2022-09-05T08:04:51.679Z,2.97
2022-09-05T08:07:46.922Z,2.72
2022-09-05T08:10:35.927Z,2.80
2022-09-05T08:13:27.435Z,2.70
2022-09-05T08:16:13.264Z,2.67
2022-09-05T08:18:49.909Z,2.83
2022-09-05T08:21:40.569Z,2.85
2022-09-05T08:24:25.733Z,3.38
2022-09-05T08:27:16.969Z,3.08
2022-09-05T08:30:25.163Z,2.45
2022-09-05T08:33:11.378Z,2.35
2022-09-05T08:35:43.541Z,2.30
2022-09-05T08:38:16.436Z,2.53
2022-09-05T08:40:49.726Z,3.00
2022-09-05T08:46:35.773Z,2.22
2022-09-05T08:46:48.378Z,2.60
2022-09-05T08:49:53.968Z,2.70
2022-09-05T08:52:40.232Z,2.50
2022-09-05T08:55:19.907Z,2.13
2022-09-05T08:58:24.821Z,2.28
2022-09-05T09:01:44.558Z,2.65
2022-09-05T09:05:02.199Z,1.98
2022-09-05T09:07:50.893Z,2.22
2022-09-05T09:10:55.497Z,1.85
2022-09-05T09:13:55.431Z,2.20
2022-09-05T09:16:50.037Z,1.90
2022-09-05T09:19:29.567Z,1.92
2022-09-05T09:22:25.208Z,2.03
2022-09-05T09:25:14.188Z,1.90
2022-09-05T09:28:49.914Z,2.33
2022-09-05T09:30:53.196Z,1.83
2022-09-05T09:33:54.412Z,2.38
2022-09-05T09:36:55.825Z,1.95
2022-09-05T09:39:38.619Z,2.03
2022-09-05T09:42:45.420Z,1.90
2022-09-05T09:45:29.509Z,1.80
2022-09-05T09:48:00.528Z,1.98
2022-09-05T09:50:58.413Z,1.95
2022-09-05T09:53:57.985Z,2.85
2022-09-05T09:57:03.184Z,2.95
2022-09-05T09:59:54.723Z,2.47
2022-09-05T10:08:21.344Z,2.30
2022-09-05T10:10:38.088Z,1.80
2022-09-05T10:10:52.607Z,2.33
2022-09-05T10:12:22.842Z,1.95
2022-09-05T10:15:25.433Z,2.00
2022-09-05T10:18:36.964Z,2.00
2022-09-05T10:21:24.859Z,1.85
2022-09-05T10:24:18.421Z,2.35
2022-09-05T10:27:04.356Z,2.17
2022-09-05T10:29:43.905Z,2.05
2022-09-05T10:35:05.712Z,2.40
2022-09-05T10:35:29.285Z,2.38
2022-09-05T10:38:11.357Z,2.10
2022-09-05T10:40:51.428Z,2.42
2022-09-05T10:43:33.230Z,2.20
2022-09-05T10:46:49.092Z,2.13
2022-09-05T10:49:16.401Z,2.40
2022-09-05T10:52:05.397Z,2.20
2022-09-05T10:55:14.677Z,2.10
2022-09-05T10:58:17.211Z,2.03
2022-09-05T11:02:20.026Z,2.13
2022-09-05T11:04:15.938Z,2.28
2022-09-05T11:06:46.624Z,3.40
2022-09-05T11:09:35.930Z,2.20
2022-09-05T11:12:07.086Z,2.00
2022-09-05T11:14:56.212Z,1.95
2022-09-05T11:17:30.362Z,2.13
2022-09-05T11:20:35.235Z,2.25
2022-09-05T11:23:19.437Z,2.17
2022-09-05T11:25:55.865Z,3.03
2022-09-05T11:28:51.016Z,2.58
2022-09-05T11:32:42.152Z,2.15
2022-09-05T11:39:54.097Z,2.10
2022-09-05T11:40:05.033Z,2.47
2022-09-05T11:41:29.944Z,2.05
2022-09-05T11:44:27.045Z,2.28
2022-09-05T11:47:39.317Z,1.98
2022-09-05T11:50:25.261Z,1.90
2022-09-05T11:52:53.728Z,1.80
2022-09-05T11:55:36.371Z,1.90
2022-09-05T11:58:44.945Z,1.95
2022-09-05T12:01:36.825Z,2.25
2022-09-05T12:05:48.291Z,2.22
2022-09-05T12:07:46.140Z,2.42
2022-09-05T12:10:46.330Z,2.15
2022-09-05T12:13:29.211Z,1.90
2022-09-05T12:16:07.672Z,1.65
2022-09-05T12:19:02.801Z,1.15
2022-09-05T12:22:08.884Z,1.38
2022-09-05T12:25:24.888Z,1.13
2022-09-05T12:29:25.973Z,1.20
2022-09-05T12:32:19.542Z,1.40
2022-09-05T12:36:13.058Z,1.70
2022-09-05T12:40:43.555Z,2.00
2022-09-05T12:41:34.560Z,2.00
2022-09-05T12:44:29.952Z,1.70
2022-09-05T12:46:23.774Z,2.28
2022-09-05T12:48:55.098Z,2.00
2022-09-05T12:51:46.896Z,1.40
2022-09-05T12:54:44.379Z,1.23
2022-09-05T13:01:25.773Z,1.40
2022-09-05T13:03:08.220Z,1.17
2022-09-05T13:03:31.708Z,1.40
2022-09-05T13:06:06.421Z,1.70
2022-09-05T13:08:52.842Z,1.48
2022-09-05T13:14:50.709Z,1.20
2022-09-05T13:15:02.797Z,1.33
2022-09-05T13:17:15.872Z,2.00
2022-09-05T13:19:51.250Z,1.90
2022-09-05T13:22:25.874Z,1.70
2022-09-05T13:25:10.050Z,1.83
2022-09-05T13:27:46.581Z,1.45
2022-09-05T13:31:40.646Z,1.90
2022-09-05T13:38:02.655Z,1.80
2022-09-05T13:38:04.969Z,1.90
2022-09-05T13:39:12.821Z,1.80
2022-09-05T13:41:50.721Z,2.30
2022-09-05T13:44:25.671Z,1.63
2022-09-05T13:47:28.979Z,1.80
2022-09-05T13:50:09.087Z,1.70
2022-09-05T13:52:47.875Z,1.50
2022-09-05T13:55:38.864Z,1.83
2022-09-05T13:58:17.232Z,1.70
2022-09-05T14:01:06.344Z,1.60
2022-09-05T14:05:05.217Z,1.80
2022-09-05T14:10:21.649Z,1.10
2022-09-05T14:13:02.390Z,1.70
2022-09-05T14:15:56.500Z,1.60
2022-09-05T14:18:27.199Z,1.50
2022-09-05T14:21:19.017Z,1.15
2022-09-05T14:24:03.348Z,1.30
2022-09-05T14:26:49.708Z,1.40
2022-09-05T14:29:26.314Z,1.30
2022-09-05T14:37:41.894Z,1.20
2022-09-05T14:37:54.598Z,1.15
2022-09-05T14:38:19.670Z,1.30
2022-09-05T14:41:24.990Z,1.42
2022-09-05T14:44:27.580Z,1.50
2022-09-05T14:47:34.949Z,1.50
2022-09-05T14:50:29.734Z,1.10
2022-09-05T15:01:34.485Z,1.50
2022-09-05T15:16:20.398Z,1.48
2022-09-05T15:18:51.223Z,1.58
2022-09-05T15:21:34.060Z,1.55
2022-09-05T15:24:16.992Z,1.60
2022-09-05T15:26:56.909Z,1.75
2022-09-05T15:29:34.388Z,1.50
2022-09-05T15:32:21.272Z,1.55
2022-09-05T15:34:50.699Z,1.30
2022-09-05T15:37:40.523Z,1.73
2022-09-05T15:40:24.073Z,1.30
2022-09-05T15:42:59.165Z,1.25
2022-09-05T15:45:36.249Z,1.58
2022-09-05T15:48:22.571Z,1.45
2022-09-05T15:50:55.431Z,1.70
2022-09-05T15:53:29.388Z,1.55
2022-09-05T15:56:19.720Z,1.60
2022-09-05T15:58:55.269Z,1.67
2022-09-05T16:01:59.077Z,1.50
2022-09-05T16:09:45.158Z,1.80
2022-09-05T16:10:37.856Z,1.70
2022-09-05T16:10:40.244Z,1.90
2022-09-05T16:13:15.658Z,1.58
2022-09-05T16:22:17.008Z,1.55
2022-09-05T16:23:32.022Z,1.58
2022-09-05T16:23:32.499Z,1.48
2022-09-05T16:24:58.098Z,1.40
2022-09-05T16:28:03.564Z,1.60
2022-09-05T16:30:39.387Z,1.35
2022-09-05T16:33:20.503Z,1.50
2022-09-05T16:35:57.082Z,1.67
2022-09-05T16:38:49.643Z,1.33
2022-09-05T16:41:44.504Z,1.75
2022-09-05T16:44:24.107Z,1.88
2022-09-05T16:47:11.159Z,2.00
2022-09-05T16:49:53.197Z,2.00
2022-09-05T16:52:32.610Z,1.90
2022-09-05T16:55:08.392Z,2.30
2022-09-05T16:57:51.541Z,1.65
2022-09-05T17:00:25.974Z,1.38
2022-09-05T17:03:28.137Z,1.30
2022-09-05T17:06:32.294Z,1.52
2022-09-05T17:09:13.758Z,2.20
2022-09-05T17:12:00.280Z,1.58
2022-09-05T17:14:42.805Z,1.60
2022-09-05T17:18:20.740Z,1.30
2022-09-05T17:20:20.964Z,1.38
2022-09-05T17:27:29.776Z,1.60
2022-09-05T17:29:20.755Z,1.30
2022-09-05T17:29:47.134Z,1.58
2022-09-05T17:31:58.600Z,1.88
2022-09-05T17:34:30.376Z,1.63
2022-09-05T17:37:25.617Z,1.50
2022-09-05T17:40:06.000Z,1.30
2022-09-05T17:42:43.067Z,1.67
2022-09-05T17:45:23.205Z,1.50
2022-09-05T17:48:03.405Z,1.60
2022-09-05T17:50:33.394Z,1.70
2022-09-05T17:53:25.648Z,1.60
2022-09-05T17:55:57.743Z,1.33
2022-09-05T17:58:38.332Z,1.73
2022-09-05T18:01:26.378Z,1.77
2022-09-05T18:04:16.858Z,1.60
2022-09-05T18:06:58.958Z,1.48
2022-09-05T18:09:37.718Z,1.65
2022-09-05T18:12:07.141Z,1.55
2022-09-05T18:17:42.498Z,2.10
2022-09-05T18:20:39.614Z,2.00
2022-09-05T18:23:39.570Z,2.10
2022-09-05T18:26:22.771Z,1.80
2022-09-05T18:28:50.473Z,1.83
2022-09-05T18:31:45.302Z,2.33
2022-09-05T18:34:19.438Z,1.73
2022-09-05T18:36:49.194Z,2.17
2022-09-05T18:39:26.187Z,1.85
2022-09-05T18:42:26.178Z,2.13
2022-09-05T18:45:16.486Z,3.11
2022-09-05T18:47:57.203Z,2.20
2022-09-05T18:50:34.664Z,2.10
2022-09-05T18:53:12.677Z,1.88
2022-09-05T18:56:12.957Z,2.40
2022-09-05T18:59:12.720Z,2.20
2022-09-05T19:02:08.146Z,2.30
2022-09-05T19:05:01.065Z,1.80
2022-09-05T19:07:41.733Z,2.13
2022-09-05T19:10:36.139Z,2.10
2022-09-05T19:13:19.580Z,2.67
2022-09-05T19:16:06.631Z,1.90
2022-09-05T19:19:31.459Z,2.17
2022-09-05T19:22:39.473Z,1.92
2022-09-05T19:24:50.498Z,2.00
2022-09-05T19:29:44.488Z,2.20
2022-09-05T19:37:12.706Z,2.33
2022-09-05T19:37:14.797Z,2.55
2022-09-05T19:43:42.783Z,2.30
2022-09-05T19:47:27.794Z,2.33
2022-09-05T19:47:38.174Z,2.15
2022-09-05T19:48:03.947Z,2.20
2022-09-05T19:50:33.932Z,2.33
2022-09-05T19:53:07.649Z,2.60
2022-09-05T19:55:38.352Z,2.45
2022-09-05T19:58:20.089Z,3.33
2022-09-05T20:01:08.223Z,2.03
2022-09-05T20:03:43.093Z,1.98
2022-09-05T20:06:29.266Z,2.10
2022-09-05T20:09:15.800Z,1.85
2022-09-05T20:11:59.881Z,1.90
2022-09-05T20:14:32.624Z,2.08
2022-09-05T20:17:26.406Z,2.20
2022-09-05T20:20:08.736Z,2.20
2022-09-05T20:22:49.111Z,1.70
2022-09-05T20:25:39.706Z,2.03
2022-09-05T20:28:10.915Z,2.25
2022-09-05T20:30:45.129Z,2.05
2022-09-05T20:33:18.626Z,2.20
2022-09-05T20:38:50.617Z,1.90
2022-09-05T20:43:23.235Z,2.10
2022-09-05T20:43:24.586Z,2.17
2022-09-05T20:44:25.087Z,2.60
2022-09-05T20:51:26.344Z,2.35
2022-09-05T20:54:14.213Z,2.00
2022-09-05T20:54:15.845Z,2.20
2022-09-05T20:56:48.112Z,1.95
2022-09-05T20:59:37.060Z,2.50
2022-09-05T21:02:07.193Z,2.47
2022-09-05T21:04:38.593Z,2.17
2022-09-05T21:07:22.130Z,2.70
2022-09-05T21:09:56.597Z,1.80
2022-09-05T21:12:29.477Z,2.20
2022-09-05T21:15:22.964Z,1.70
2022-09-05T21:18:17.159Z,2.10
2022-09-05T21:20:56.716Z,2.00
2022-09-05T21:23:28.889Z,1.80
2022-09-05T21:26:01.816Z,6.03
2022-09-05T21:28:36.955Z,2.20
2022-09-05T21:31:14.657Z,2.00
2022-09-05T21:33:45.150Z,1.90
2022-09-05T21:36:15.547Z,1.80
2022-09-05T21:38:43.955Z,1.52
2022-09-05T21:41:15.780Z,1.83
2022-09-05T21:47:39.560Z,1.73
2022-09-05T21:47:39.760Z,2.08
2022-09-05T21:49:23.292Z,1.60
2022-09-05T21:51:51.903Z,1.73
2022-09-05T21:59:17.433Z,2.05
2022-09-05T21:59:25.802Z,1.75
2022-09-05T22:00:16.279Z,1.83
2022-09-05T22:02:49.333Z,1.80
2022-09-05T22:05:17.538Z,1.75
2022-09-05T22:07:45.290Z,1.95
2022-09-05T22:10:13.082Z,2.10
2022-09-05T22:12:41.522Z,1.60
2022-09-05T22:15:29.121Z,1.70
2022-09-05T22:18:17.800Z,2.00
2022-09-05T22:20:53.426Z,1.88
2022-09-05T22:23:40.119Z,2.15
2022-09-05T22:26:07.916Z,2.20
2022-09-05T22:28:48.709Z,2.00
2022-09-05T22:31:20.020Z,1.90
2022-09-05T22:33:51.279Z,2.30
2022-09-05T22:36:19.385Z,2.17
2022-09-05T22:38:47.616Z,2.15
2022-09-05T22:41:15.426Z,2.00
2022-09-05T22:43:46.457Z,1.90
2022-09-05T22:46:14.618Z,2.33
2022-09-05T22:48:42.561Z,2.05
2022-09-05T22:51:10.422Z,1.80
2022-09-05T22:53:38.511Z,1.90
2022-09-05T22:56:08.345Z,1.85
2022-09-05T22:58:44.827Z,1.85
2022-09-05T23:01:12.926Z,1.77
2022-09-05T23:03:40.689Z,1.90
2022-09-05T23:06:10.202Z,1.83
2022-09-05T23:08:37.861Z,1.95
2022-09-05T23:11:17.198Z,1.90
2022-09-05T23:13:44.966Z,2.13
2022-09-05T23:16:12.736Z,2.25
2022-09-05T23:18:40.613Z,1.90
2022-09-05T23:21:11.023Z,2.00
2022-09-05T23:23:41.214Z,2.10
2022-09-05T23:26:11.743Z,2.35
2022-09-05T23:28:43.123Z,2.00
2022-09-05T23:31:12.848Z,1.95
2022-09-05T23:33:41.942Z,2.30
2022-09-05T23:36:13.693Z,1.85
2022-09-05T23:38:44.498Z,1.95
2022-09-05T23:41:14.592Z,2.00
2022-09-05T23:43:42.859Z,1.98
2022-09-05T23:46:10.647Z,1.90
2022-09-05T23:48:38.470Z,2.00
2022-09-05T23:51:11.754Z,2.03
2022-09-05T23:53:40.212Z,1.90
2022-09-05T23:56:09.919Z,1.90
2022-09-05T23:58:38.627Z,2.10
